createdAt,value
2018-07-01T00:02:15.307Z,59.60
2018-07-01T00:04:44.183Z,56.30
2018-07-01T00:07:13.200Z,60.40
2018-07-01T00:09:42.237Z,58.00
2018-07-01T00:12:11.156Z,59.70
2018-07-01T00:14:40.108Z,57.90
2018-07-01T00:17:09.016Z,59.50
2018-07-01T00:19:38.101Z,59.90
2018-07-01T00:22:07.037Z,60.00
2018-07-01T00:24:35.912Z,59.80
2018-07-01T00:27:05.000Z,60.10
2018-07-01T00:29:33.887Z,60.00
2018-07-01T00:32:02.877Z,59.80
2018-07-01T00:34:31.868Z,59.50
2018-07-01T00:37:00.868Z,61.60
2018-07-01T00:39:30.325Z,59.40
2018-07-01T00:41:59.491Z,60.90
2018-07-01T00:44:28.472Z,60.90
2018-07-01T00:46:57.385Z,60.50
2018-07-01T00:49:26.261Z,60.90
2018-07-01T00:51:55.184Z,62.00
2018-07-01T00:54:24.077Z,61.30
2018-07-01T00:56:53.067Z,61.90
2018-07-01T00:59:21.957Z,62.50
2018-07-01T01:01:50.895Z,63.00
2018-07-01T01:04:19.847Z,61.70
2018-07-01T01:06:48.739Z,61.80
2018-07-01T01:09:17.656Z,61.90
2018-07-01T01:11:46.552Z,61.60
2018-07-01T01:14:15.488Z,65.40
2018-07-01T01:16:44.649Z,63.50
2018-07-01T01:19:13.551Z,63.30
2018-07-01T01:21:42.488Z,63.20
2018-07-01T01:24:11.643Z,62.30
2018-07-01T01:26:40.531Z,59.80
2018-07-01T01:29:09.514Z,63.60
2018-07-01T01:31:38.349Z,62.90
2018-07-01T01:34:07.408Z,64.50
2018-07-01T01:36:36.348Z,61.80
2018-07-01T01:39:08.247Z,62.90
2018-07-01T01:41:37.169Z,63.10
2018-07-01T01:44:06.125Z,63.90
2018-07-01T01:46:34.941Z,63.80
2018-07-01T01:49:03.861Z,64.00
2018-07-01T01:51:32.740Z,63.30
2018-07-01T01:54:01.696Z,62.00
2018-07-01T01:56:30.766Z,64.20
2018-07-01T01:59:00.023Z,63.00
2018-07-01T02:01:28.931Z,62.20
2018-07-01T02:03:57.959Z,65.90
2018-07-01T02:06:26.815Z,62.40
2018-07-01T02:08:55.684Z,63.90
2018-07-01T02:11:24.536Z,65.60
2018-07-01T02:13:53.390Z,64.30
2018-07-01T02:16:22.304Z,64.60
2018-07-01T02:18:51.267Z,63.40
2018-07-01T02:21:20.200Z,64.70
2018-07-01T02:23:49.091Z,66.40
2018-07-01T02:26:17.984Z,64.90
2018-07-01T02:28:46.894Z,64.20
2018-07-01T02:31:15.795Z,63.80
2018-07-01T02:33:44.717Z,66.40
2018-07-01T02:36:13.676Z,64.40
2018-07-01T02:38:42.641Z,67.10
2018-07-01T02:41:11.587Z,64.30
2018-07-01T02:43:40.519Z,64.20
2018-07-01T02:48:37.919Z,64.50
2018-07-01T02:51:06.940Z,63.90
2018-07-01T02:53:35.795Z,65.40
2018-07-01T02:56:04.711Z,65.30
2018-07-01T02:58:33.596Z,67.90
2018-07-01T03:01:02.520Z,66.90
2018-07-01T03:03:31.399Z,68.20
2018-07-01T03:06:00.579Z,66.40
2018-07-01T03:08:29.761Z,64.80
2018-07-01T03:10:58.650Z,67.10
2018-07-01T03:13:27.577Z,65.90
2018-07-01T03:18:24.961Z,66.70
2018-07-01T03:20:53.852Z,67.80
2018-07-01T03:23:22.792Z,67.10
2018-07-01T03:25:51.826Z,66.80
2018-07-01T03:30:49.225Z,65.30
2018-07-01T03:33:18.119Z,66.90
2018-07-01T03:35:47.604Z,67.60
2018-07-01T03:40:45.239Z,66.90
2018-07-01T03:43:14.111Z,66.90
2018-07-01T03:45:43.138Z,66.80
2018-07-01T03:48:11.993Z,66.00
2018-07-01T03:50:40.917Z,68.70
2018-07-01T03:53:09.814Z,65.70
2018-07-01T03:55:38.750Z,64.70
2018-07-01T03:58:07.636Z,66.30
2018-07-01T04:00:36.582Z,64.60
2018-07-01T04:03:05.368Z,63.30
2018-07-01T04:05:34.327Z,61.10
2018-07-01T04:08:03.260Z,62.70
2018-07-01T04:10:32.096Z,60.00
2018-07-01T04:13:01.029Z,61.40
2018-07-01T04:15:29.970Z,62.00
2018-07-01T04:17:58.835Z,60.30
2018-07-01T04:20:27.687Z,60.90
2018-07-01T04:22:56.644Z,59.80
2018-07-01T04:25:25.503Z,59.10
2018-07-01T04:27:54.402Z,58.60
2018-07-01T04:30:23.271Z,57.60
2018-07-01T04:32:52.181Z,58.30
2018-07-01T04:35:21.107Z,58.60
2018-07-01T04:37:49.977Z,56.50
2018-07-01T04:40:18.860Z,55.50
2018-07-01T04:42:47.851Z,56.60
2018-07-01T04:45:16.708Z,56.00
2018-07-01T04:47:45.562Z,55.80
2018-07-01T04:50:14.436Z,57.20
2018-07-01T04:52:43.346Z,57.90
2018-07-01T04:55:12.327Z,56.90
2018-07-01T04:57:41.168Z,55.40
2018-07-01T05:00:10.112Z,54.20
2018-07-01T05:02:38.996Z,55.50
2018-07-01T05:05:07.953Z,54.10
2018-07-01T05:07:37.304Z,54.40
2018-07-01T05:10:06.195Z,53.50
2018-07-01T05:12:35.195Z,53.20
2018-07-01T05:15:04.310Z,54.40
2018-07-01T05:17:33.240Z,53.70
2018-07-01T05:20:02.201Z,54.80
2018-07-01T05:22:31.132Z,54.80
2018-07-01T05:25:00.339Z,54.40
2018-07-01T05:27:29.532Z,54.90
2018-07-01T05:29:58.424Z,53.70
2018-07-01T05:32:27.376Z,54.80
2018-07-01T05:34:56.276Z,53.10
2018-07-01T05:37:25.243Z,53.30
2018-07-01T05:42:22.576Z,53.50
2018-07-01T05:44:51.485Z,55.40
2018-07-01T05:47:20.399Z,54.50
2018-07-01T05:49:49.280Z,54.90
2018-07-01T05:54:46.688Z,54.20
2018-07-01T05:57:15.638Z,54.50
2018-07-01T05:59:44.507Z,55.60
2018-07-01T06:02:13.412Z,54.00
2018-07-01T06:04:42.522Z,55.40
2018-07-01T06:07:11.833Z,54.60
2018-07-01T06:09:40.695Z,56.20
2018-07-01T06:12:09.611Z,54.50
2018-07-01T06:14:38.527Z,55.50
2018-07-01T06:17:07.420Z,55.00
2018-07-01T06:19:36.556Z,55.80
2018-07-01T06:22:05.559Z,54.30
2018-07-01T06:24:34.546Z,55.00
2018-07-01T06:27:03.468Z,55.60
2018-07-01T06:29:32.459Z,55.00
2018-07-01T06:32:01.461Z,56.80
2018-07-01T06:34:30.456Z,58.00
2018-07-01T06:36:59.495Z,52.30
2018-07-01T06:39:28.541Z,51.50
2018-07-01T06:41:57.468Z,53.30
2018-07-01T06:44:26.526Z,51.90
2018-07-01T06:46:55.391Z,52.20
2018-07-01T06:49:24.674Z,51.10
2018-07-01T06:51:53.553Z,51.10
2018-07-01T06:54:25.351Z,51.50
2018-07-01T06:56:54.579Z,50.30
2018-07-01T06:59:23.505Z,52.80
2018-07-01T07:01:52.456Z,52.90
2018-07-01T07:04:21.473Z,51.00
2018-07-01T07:06:50.439Z,52.10
2018-07-01T07:09:19.334Z,53.20
2018-07-01T07:11:48.372Z,52.50
2018-07-01T07:14:17.395Z,53.30
2018-07-01T07:16:46.380Z,53.10
2018-07-01T07:19:15.284Z,51.70
2018-07-01T07:21:44.280Z,51.30
2018-07-01T07:24:13.963Z,50.90
2018-07-01T07:26:42.962Z,52.90
2018-07-01T07:29:11.863Z,50.80
2018-07-01T07:31:40.782Z,51.40
2018-07-01T07:34:09.881Z,54.00
2018-07-01T07:36:38.807Z,53.80
2018-07-01T07:39:08.477Z,53.30
2018-07-01T07:41:37.388Z,52.60
2018-07-01T07:44:06.413Z,52.10
2018-07-01T07:46:35.431Z,52.60
2018-07-01T07:49:04.580Z,51.90
2018-07-01T07:51:33.543Z,53.30
2018-07-01T07:54:02.574Z,52.30
2018-07-01T07:56:31.508Z,53.00
2018-07-01T07:59:00.525Z,52.90
2018-07-01T08:03:57.888Z,52.60
2018-07-01T08:06:26.944Z,54.40
2018-07-01T08:08:56.174Z,54.20
2018-07-01T08:11:25.192Z,53.20
2018-07-01T08:13:54.516Z,51.50
2018-07-01T08:16:23.438Z,53.00
2018-07-01T08:18:52.544Z,53.20
2018-07-01T08:21:21.636Z,51.10
2018-07-01T08:23:50.576Z,52.30
2018-07-01T08:26:19.503Z,51.80
2018-07-01T08:28:48.581Z,51.10
2018-07-01T08:31:17.530Z,51.20
2018-07-01T08:33:46.497Z,52.60
2018-07-01T08:36:15.409Z,51.20
2018-07-01T08:41:13.041Z,52.70
2018-07-01T08:43:41.864Z,50.70
2018-07-01T08:46:10.842Z,51.20
2018-07-01T08:48:40.974Z,51.20
2018-07-01T08:51:09.898Z,50.80
2018-07-01T08:53:38.907Z,50.30
2018-07-01T08:56:07.850Z,51.60
2018-07-01T08:58:36.756Z,50.30
2018-07-01T09:01:05.758Z,50.70
2018-07-01T09:03:34.688Z,52.50
2018-07-01T09:06:03.910Z,53.10
2018-07-01T09:08:32.836Z,52.30
2018-07-01T09:11:01.693Z,51.90
2018-07-01T09:13:30.635Z,51.70
2018-07-01T09:15:59.512Z,53.00
2018-07-01T09:18:28.424Z,51.70
2018-07-01T09:20:57.314Z,50.20
2018-07-01T09:23:26.237Z,50.80
2018-07-01T09:25:55.229Z,50.00
2018-07-01T09:28:24.207Z,50.40
2018-07-01T09:30:53.127Z,50.30
2018-07-01T09:33:22.106Z,50.10
2018-07-01T09:35:51.012Z,47.80
2018-07-01T09:38:20.193Z,50.80
2018-07-01T09:40:49.092Z,49.00
2018-07-01T09:43:18.064Z,49.00
2018-07-01T09:45:46.879Z,48.80
2018-07-01T09:48:15.781Z,49.80
2018-07-01T09:53:13.611Z,49.20
2018-07-01T09:55:42.524Z,48.40
2018-07-01T09:58:11.478Z,47.60
2018-07-01T10:00:40.689Z,50.00
2018-07-01T10:03:09.918Z,50.30
2018-07-01T10:05:39.075Z,48.90
2018-07-01T10:08:08.057Z,48.70
2018-07-01T10:10:36.988Z,48.00
2018-07-01T10:13:05.951Z,47.70
2018-07-01T10:15:34.884Z,47.20
2018-07-01T10:18:04.408Z,48.60
2018-07-01T10:20:33.363Z,49.50
2018-07-01T10:23:02.296Z,48.10
2018-07-01T10:25:31.248Z,49.60
2018-07-01T10:28:00.160Z,48.20
2018-07-01T10:30:29.164Z,47.30
2018-07-01T10:32:58.172Z,47.60
2018-07-01T10:35:27.113Z,47.30
2018-07-01T10:37:56.008Z,47.70
2018-07-01T10:40:25.012Z,47.10
2018-07-01T10:45:22.363Z,46.80
2018-07-01T10:47:51.263Z,46.90
2018-07-01T10:50:20.367Z,45.80
2018-07-01T10:52:49.326Z,46.90
2018-07-01T10:55:18.493Z,46.30
2018-07-01T10:57:47.437Z,45.60
2018-07-01T11:00:16.406Z,47.20
2018-07-01T11:02:45.295Z,46.40
2018-07-01T11:05:14.206Z,45.30
2018-07-01T11:07:43.146Z,47.50
2018-07-01T11:10:12.064Z,46.60
2018-07-01T11:12:40.984Z,45.00
2018-07-01T11:15:10.042Z,45.90
2018-07-01T11:17:38.951Z,45.50
2018-07-01T11:20:07.889Z,48.50
2018-07-01T11:22:36.832Z,47.00
2018-07-01T11:27:34.997Z,46.40
2018-07-01T11:30:04.412Z,44.90
2018-07-01T11:32:33.356Z,45.00
2018-07-01T11:35:02.597Z,47.00
2018-07-01T11:37:31.571Z,45.50
2018-07-01T11:40:00.557Z,46.60
2018-07-01T11:42:29.480Z,47.00
2018-07-01T11:44:58.389Z,43.90
2018-07-01T11:47:27.292Z,43.50
2018-07-01T11:49:56.205Z,43.50
2018-07-01T11:52:25.149Z,44.70
2018-07-01T11:54:54.095Z,43.70
2018-07-01T11:57:23.224Z,44.90
2018-07-01T11:59:52.123Z,44.80
2018-07-01T12:02:21.011Z,45.70
2018-07-01T12:05:02.953Z,45.20
2018-07-01T12:07:18.787Z,43.20
2018-07-01T12:09:47.671Z,43.50
2018-07-01T12:12:16.578Z,44.60
2018-07-01T12:14:45.548Z,45.50
2018-07-01T12:17:14.509Z,45.40
2018-07-01T12:19:43.404Z,44.20
2018-07-01T12:22:12.624Z,44.50
2018-07-01T12:24:41.831Z,43.70
2018-07-01T12:27:10.825Z,46.40
2018-07-01T12:29:39.771Z,46.10
2018-07-01T12:32:08.692Z,44.00
2018-07-01T12:34:37.676Z,43.90
2018-07-01T12:37:06.589Z,44.80
2018-07-01T12:39:35.599Z,43.30
2018-07-01T12:42:04.921Z,43.80
2018-07-01T12:44:33.954Z,44.70
2018-07-01T12:47:02.960Z,43.50
2018-07-01T12:49:32.048Z,42.70
2018-07-01T12:52:01.123Z,42.90
2018-07-01T12:56:59.003Z,43.60
2018-07-01T12:59:28.025Z,44.30
2018-07-01T13:01:57.102Z,44.20
2018-07-01T13:04:25.933Z,43.80
2018-07-01T13:06:54.892Z,43.60
2018-07-01T13:09:23.766Z,45.10
2018-07-01T13:11:52.739Z,43.10
2018-07-01T13:14:21.609Z,44.80
2018-07-01T13:16:50.519Z,43.20
2018-07-01T13:19:19.476Z,43.10
2018-07-01T13:21:48.450Z,43.70
2018-07-01T13:24:17.364Z,42.60
2018-07-01T13:26:46.248Z,44.50
2018-07-01T13:29:15.252Z,43.10
2018-07-01T13:31:44.143Z,42.90
2018-07-01T13:34:13.036Z,43.40
2018-07-01T13:36:41.924Z,43.30
2018-07-01T13:39:10.809Z,43.50
2018-07-01T13:41:39.688Z,43.70
2018-07-01T13:44:08.663Z,43.30
2018-07-01T13:46:37.723Z,42.70
2018-07-01T13:49:06.714Z,43.00
2018-07-01T13:51:35.612Z,43.30
2018-07-01T13:54:04.757Z,43.80
2018-07-01T13:56:33.701Z,43.80
2018-07-01T13:59:02.607Z,43.20
2018-07-01T14:01:31.567Z,43.20
2018-07-01T14:04:00.579Z,43.80
2018-07-01T14:06:29.619Z,43.20
2018-07-01T14:08:58.507Z,44.00
2018-07-01T14:11:27.441Z,43.80
2018-07-01T14:13:56.348Z,43.90
2018-07-01T14:16:25.217Z,43.90
2018-07-01T14:18:54.083Z,44.50
2018-07-01T14:21:22.984Z,44.10
2018-07-01T14:23:51.928Z,44.80
2018-07-01T14:26:20.823Z,44.20
2018-07-01T14:28:49.734Z,44.90
2018-07-01T14:31:18.695Z,44.00
2018-07-01T14:33:47.695Z,44.90
2018-07-01T14:36:16.677Z,44.60
2018-07-01T14:38:45.576Z,44.50
2018-07-01T14:41:14.620Z,44.10
2018-07-01T14:43:43.720Z,43.90
2018-07-01T14:46:12.597Z,44.40
2018-07-01T14:48:41.596Z,45.10
2018-07-01T14:51:10.600Z,44.80
2018-07-01T14:53:39.622Z,44.20
2018-07-01T14:56:08.576Z,44.10
2018-07-01T14:58:37.751Z,44.70
2018-07-01T15:01:07.007Z,44.80
2018-07-01T15:03:35.925Z,44.80
2018-07-01T15:06:05.939Z,44.70
2018-07-01T15:08:35.146Z,44.90
2018-07-01T15:11:04.155Z,44.80
2018-07-01T15:13:33.060Z,44.10
2018-07-01T15:16:02.054Z,44.50
2018-07-01T15:18:30.933Z,44.00
2018-07-01T15:20:59.935Z,44.50
2018-07-01T15:23:28.848Z,44.60
2018-07-01T15:25:57.993Z,45.60
2018-07-01T15:28:27.044Z,45.20
2018-07-01T15:30:56.181Z,44.60
2018-07-01T15:33:25.149Z,45.20
2018-07-01T15:35:54.051Z,44.70
2018-07-01T15:38:23.083Z,44.30
2018-07-01T15:40:51.963Z,44.70
2018-07-01T15:43:21.023Z,44.00
2018-07-01T15:45:50.104Z,43.90
2018-07-01T15:48:19.006Z,44.50
2018-07-01T15:50:47.980Z,44.40
2018-07-01T15:53:16.956Z,44.30
2018-07-01T15:55:45.864Z,44.50
2018-07-01T15:58:14.825Z,44.70
2018-07-01T16:00:43.908Z,44.40
2018-07-01T16:03:12.852Z,45.00
2018-07-01T16:05:41.745Z,44.70
2018-07-01T16:08:10.618Z,45.00
2018-07-01T16:10:39.512Z,44.80
2018-07-01T16:13:08.437Z,45.10
2018-07-01T16:15:37.298Z,44.70
2018-07-01T16:18:06.185Z,44.60
2018-07-01T16:20:35.169Z,45.10
2018-07-01T16:23:04.435Z,44.80
2018-07-01T16:25:33.507Z,44.60
2018-07-01T16:28:02.472Z,44.90
2018-07-01T16:30:31.415Z,45.20
2018-07-01T16:35:28.800Z,44.40
2018-07-01T16:37:57.792Z,44.80
2018-07-01T16:40:26.785Z,44.40
2018-07-01T16:42:55.866Z,44.40
2018-07-01T16:45:24.833Z,43.90
2018-07-01T16:47:53.784Z,44.40
2018-07-01T16:50:22.861Z,45.00
2018-07-01T16:52:51.824Z,44.80
2018-07-01T16:55:20.832Z,43.90
2018-07-01T16:57:49.709Z,43.60
2018-07-01T17:00:18.607Z,43.40
2018-07-01T17:02:47.584Z,44.00
2018-07-01T17:05:16.549Z,44.20
2018-07-01T17:07:45.469Z,44.20
2018-07-01T17:10:14.360Z,44.20
2018-07-01T17:12:43.292Z,44.20
2018-07-01T17:15:12.228Z,41.70
2018-07-01T17:17:41.275Z,42.80
2018-07-01T17:20:10.291Z,43.10
2018-07-01T17:22:39.351Z,43.30
2018-07-01T17:27:36.908Z,43.00
2018-07-01T17:30:05.865Z,41.70
2018-07-01T17:32:34.751Z,41.70
2018-07-01T17:35:03.889Z,41.50
2018-07-01T17:37:32.910Z,41.60
2018-07-01T17:40:02.061Z,41.90
2018-07-01T17:42:31.038Z,42.70
2018-07-01T17:44:59.881Z,41.50
2018-07-01T17:47:28.812Z,41.60
2018-07-01T17:49:57.885Z,42.20
2018-07-01T17:52:26.796Z,42.10
2018-07-01T17:54:55.740Z,41.70
2018-07-01T17:57:24.656Z,41.60
2018-07-01T17:59:53.663Z,41.20
2018-07-01T18:02:22.703Z,42.00
2018-07-01T18:04:51.716Z,41.60
2018-07-01T18:07:20.631Z,41.70
2018-07-01T18:09:49.596Z,42.10
2018-07-01T18:12:18.617Z,42.20
2018-07-01T18:14:47.515Z,43.10
2018-07-01T18:17:16.420Z,41.70
2018-07-01T18:19:45.330Z,41.70
2018-07-01T18:22:27.970Z,42.50
2018-07-01T18:24:58.072Z,42.00
2018-07-01T18:27:12.001Z,42.40
2018-07-01T18:29:40.911Z,42.00
2018-07-01T18:32:09.796Z,42.70
2018-07-01T18:34:38.724Z,42.70
2018-07-01T18:37:07.636Z,42.50
2018-07-01T18:39:36.676Z,42.50
2018-07-01T18:44:34.373Z,44.40
2018-07-01T18:47:03.717Z,45.30
2018-07-01T18:52:01.215Z,46.20
2018-07-01T18:54:30.117Z,46.60
2018-07-01T18:56:59.086Z,46.30
2018-07-01T18:59:28.027Z,46.40
2018-07-01T19:01:57.002Z,46.30
2018-07-01T19:04:25.940Z,46.20
2018-07-01T19:06:55.060Z,46.50
2018-07-01T19:09:24.212Z,46.60
2018-07-01T19:11:53.114Z,48.00
2018-07-01T19:14:22.017Z,47.30
2018-07-01T19:19:19.530Z,47.50
2018-07-01T19:21:48.420Z,47.80
2018-07-01T19:24:17.347Z,47.70
2018-07-01T19:26:46.562Z,47.90
2018-07-01T19:29:15.479Z,48.00
2018-07-01T19:31:44.389Z,49.00
2018-07-01T19:34:13.524Z,48.40
2018-07-01T19:36:42.545Z,48.30
2018-07-01T19:39:11.505Z,49.30
2018-07-01T19:41:40.429Z,48.70
2018-07-01T19:44:09.399Z,49.20
2018-07-01T19:46:38.283Z,49.00
2018-07-01T19:49:07.194Z,48.70
2018-07-01T19:51:36.928Z,49.60
2018-07-01T19:54:05.878Z,49.20
2018-07-01T19:56:34.760Z,49.40
2018-07-01T19:59:03.833Z,50.20
2018-07-01T20:01:32.772Z,50.30
2018-07-01T20:04:01.726Z,50.50
2018-07-01T20:06:30.817Z,50.10
2018-07-01T20:08:59.783Z,50.10
2018-07-01T20:11:28.695Z,50.70
2018-07-01T20:13:57.592Z,50.80
2018-07-01T20:16:26.597Z,50.80
2018-07-01T20:18:55.487Z,51.40
2018-07-01T20:21:24.490Z,51.30
2018-07-01T20:23:53.410Z,52.10
2018-07-01T20:26:22.308Z,51.20
2018-07-01T20:28:51.428Z,52.20
2018-07-01T20:31:20.804Z,52.00
2018-07-01T20:33:49.941Z,51.80
2018-07-01T20:36:19.004Z,51.90
2018-07-01T20:38:48.488Z,52.10
2018-07-01T20:41:17.498Z,51.90
2018-07-01T20:43:46.587Z,52.60
2018-07-01T20:46:15.607Z,52.30
2018-07-01T20:48:44.602Z,53.40
2018-07-01T20:51:13.580Z,52.50
2018-07-01T20:53:42.561Z,53.50
2018-07-01T20:56:11.735Z,53.20
2018-07-01T21:01:09.077Z,53.20
2018-07-01T21:03:38.060Z,53.20
2018-07-01T21:06:07.548Z,53.30
2018-07-01T21:08:36.628Z,53.90
2018-07-01T21:11:05.913Z,53.60
2018-07-01T21:13:35.392Z,53.30
2018-07-01T21:16:04.589Z,53.60
2018-07-01T21:18:33.535Z,53.60
2018-07-01T21:21:02.999Z,54.00
2018-07-01T21:23:32.314Z,53.50
2018-07-01T21:26:01.457Z,53.40
2018-07-01T21:28:30.452Z,54.90
2018-07-01T21:30:59.511Z,54.10
2018-07-01T21:33:28.597Z,54.70
2018-07-01T21:35:57.707Z,55.60
2018-07-01T21:38:26.759Z,56.20
2018-07-01T21:40:55.613Z,54.70
2018-07-01T21:43:24.654Z,54.20
2018-07-01T21:45:53.755Z,54.40
2018-07-01T21:48:22.692Z,56.90
2018-07-01T21:50:51.777Z,56.60
2018-07-01T21:53:20.680Z,56.00
2018-07-01T21:55:49.596Z,56.70
2018-07-01T21:58:18.512Z,55.40
2018-07-01T22:00:47.403Z,54.60
2018-07-01T22:03:17.972Z,54.70
2018-07-01T22:05:47.013Z,53.50
2018-07-01T22:08:16.240Z,54.80
2018-07-01T22:10:56.177Z,54.30
2018-07-01T22:14:28.856Z,55.40
2018-07-01T22:16:57.967Z,54.80
2018-07-01T22:19:26.972Z,54.50
2018-07-01T22:21:56.020Z,55.40
2018-07-01T22:24:25.475Z,54.70
2018-07-01T22:26:54.551Z,54.50
2018-07-01T22:29:23.491Z,54.90
2018-07-01T22:31:52.463Z,56.30
2018-07-01T22:34:21.392Z,54.80
2018-07-01T22:36:50.336Z,54.50
2018-07-01T22:39:19.272Z,55.30
2018-07-01T22:41:48.259Z,53.80
2018-07-01T22:44:17.249Z,53.60
2018-07-01T22:46:46.471Z,54.10
2018-07-01T22:49:15.351Z,55.40
2018-07-01T22:51:44.288Z,54.70
2018-07-01T22:54:13.231Z,56.20
2018-07-01T22:56:42.164Z,53.90
2018-07-01T22:59:11.167Z,54.00
2018-07-01T23:02:49.368Z,55.70
2018-07-01T23:05:18.011Z,56.10
2018-07-01T23:07:46.911Z,54.40
2018-07-01T23:10:16.009Z,54.20
2018-07-01T23:12:44.955Z,55.20
2018-07-01T23:15:13.857Z,54.80
2018-07-01T23:17:42.892Z,53.80
2018-07-01T23:20:11.964Z,55.50
2018-07-01T23:22:40.837Z,53.30
2018-07-01T23:25:10.001Z,55.40
2018-07-01T23:27:38.913Z,54.70
2018-07-01T23:30:07.893Z,54.60
2018-07-01T23:32:36.814Z,53.80
2018-07-01T23:35:05.838Z,54.50
2018-07-01T23:37:34.823Z,55.60
2018-07-01T23:40:04.241Z,55.60
2018-07-01T23:42:33.218Z,54.90
2018-07-01T23:45:02.157Z,54.60
2018-07-01T23:47:31.016Z,55.30
2018-07-01T23:49:59.906Z,55.20
2018-07-01T23:52:28.790Z,55.20
2018-07-01T23:54:57.919Z,55.50
2018-07-01T23:57:27.006Z,56.20
2018-07-01T23:59:55.986Z,54.80
